Time;durP1;ratioP1;P1;durP2;ratioP2;P2;SDS_P1;SDS_P2;PMS_P1;PMS_P2;Temp;Humidity;BMP_temperature;BMP_pressure;BME280_temperature;BME280_humidity;BME280_pressure;Samples;Min_cycle;Max_cycle;Signal;HPM_P1;HPM_P2
2022/06/16 00:00:36;;;;;;;3.95;2.35;;;20.40;94.10;;;;;;7343137;19;108897;-81
2022/06/16 00:03:05;;;;;;;5.07;2.35;;;20.20;94.30;;;;;;7342481;19;108198;-82
2022/06/16 00:05:34;;;;;;;4.13;2.53;;;20.10;94.60;;;;;;7341149;19;108177;-81
2022/06/16 00:08:03;;;;;;;6.53;2.45;;;20.10;94.90;;;;;;7340351;19;108496;-82
2022/06/16 00:10:31;;;;;;;3.78;2.60;;;20.10;94.80;;;;;;7346059;19;111486;-82
2022/06/16 00:12:58;;;;;;;8.48;2.63;;;20.00;95.00;;;;;;7340059;19;108970;-82
2022/06/16 00:15:27;;;;;;;7.20;2.70;;;19.90;95.30;;;;;;7342354;19;107589;-82
2022/06/16 00:17:56;;;;;;;12.13;2.38;;;19.80;95.50;;;;;;7341951;19;111808;-82
2022/06/16 00:20:23;;;;;;;4.75;2.72;;;19.80;95.60;;;;;;7340720;19;108984;-83
2022/06/16 00:22:50;;;;;;;8.57;2.60;;;19.70;95.80;;;;;;7341882;19;108580;-82
2022/06/16 00:25:17;;;;;;;6.75;2.50;;;19.70;96.00;;;;;;7342089;19;107214;-82
2022/06/16 00:27:45;;;;;;;6.15;2.42;;;19.60;96.20;;;;;;7342209;19;108754;-82
2022/06/16 00:30:13;;;;;;;4.22;2.40;;;19.50;96.60;;;;;;7343011;19;108110;-82
2022/06/16 00:32:41;;;;;;;4.05;2.20;;;19.50;96.30;;;;;;7346648;19;112597;-82
2022/06/16 00:35:12;;;;;;;4.55;2.50;;;19.60;96.40;;;;;;7340372;19;108306;-82
2022/06/16 00:37:39;;;;;;;6.57;2.72;;;19.50;96.40;;;;;;7339254;19;108195;-82
2022/06/16 00:40:08;;;;;;;5.43;2.85;;;19.50;96.60;;;;;;7339242;19;108742;-82
2022/06/16 00:42:36;;;;;;;5.38;2.70;;;19.40;96.80;;;;;;7340729;19;107718;-82
2022/06/16 00:45:23;;;;;;;4.78;2.35;;;19.30;97.00;;;;;;7340373;19;111525;-81
2022/06/16 00:47:53;;;;;;;7.55;2.78;;;19.30;97.10;;;;;;7338053;19;109047;-82
2022/06/16 00:50:20;;;;;;;6.15;2.42;;;19.30;97.20;;;;;;7341723;19;108027;-82
2022/06/16 00:52:47;;;;;;;9.73;2.65;;;19.20;97.20;;;;;;7344579;19;108151;-81
2022/06/16 00:55:16;;;;;;;5.55;2.78;;;19.20;97.30;;;;;;7340848;19;108109;-82
2022/06/16 00:57:46;;;;;;;4.32;2.70;;;19.10;97.40;;;;;;7341398;19;108498;-81
2022/06/16 01:02:56;;;;;;;4.38;2.80;;;19.00;97.70;;;;;;7341101;19;107248;-82
2022/06/16 01:05:23;;;;;;;5.60;2.83;;;19.00;97.70;;;;;;7338860;19;108033;-82
2022/06/16 01:07:52;;;;;;;5.38;2.67;;;18.90;97.80;;;;;;7340315;19;109695;-81
2022/06/16 01:10:19;;;;;;;8.38;3.13;;;18.90;97.90;;;;;;7339766;19;107182;-82
2022/06/16 01:16:12;;;;;;;6.78;2.97;;;18.90;98.20;;;;;;7343398;19;109742;-82
2022/06/16 01:19:06;;;;;;;13.23;2.95;;;18.90;98.30;;;;;;7339129;19;108245;-82
2022/06/16 01:22:03;;;;;;;7.75;2.95;;;18.80;98.40;;;;;;7338439;19;109089;-81
2022/06/16 01:24:36;;;;;;;7.07;2.63;;;18.70;98.50;;;;;;7338028;19;108437;-81
2022/06/16 01:27:25;;;;;;;4.97;2.80;;;18.70;98.60;;;;;;7340476;19;109496;-81
2022/06/16 01:29:58;;;;;;;8.30;2.90;;;18.60;98.60;;;;;;7340372;19;109890;-82
2022/06/16 01:32:25;;;;;;;9.15;3.28;;;18.60;98.80;;;;;;7340007;19;107384;-81
2022/06/16 01:34:58;;;;;;;4.68;3.13;;;18.50;98.80;;;;;;7340073;19;108217;-82
2022/06/16 01:37:56;;;;;;;5.53;2.90;;;18.50;99.10;;;;;;7340296;19;108856;-82
2022/06/16 01:40:54;;;;;;;6.18;3.17;;;18.50;99.20;;;;;;7344394;19;108071;-82
2022/06/16 01:43:59;;;;;;;6.07;3.40;;;18.40;99.20;;;;;;7337413;19;108247;-81
2022/06/16 01:46:30;;;;;;;6.55;2.95;;;18.30;99.70;;;;;;7336242;19;108080;-81
2022/06/16 01:49:13;;;;;;;6.68;3.20;;;18.20;99.60;;;;;;7340439;19;107192;-81
2022/06/16 01:51:45;;;;;;;7.53;3.40;;;18.20;99.90;;;;;;7343080;19;107665;-82
2022/06/16 01:54:29;;;;;;;7.70;3.30;;;18.10;99.90;;;;;;7340309;19;107991;-82
2022/06/16 01:57:02;;;;;;;6.03;3.38;;;18.10;99.90;;;;;;7343033;19;109258;-82
2022/06/16 01:59:38;;;;;;;5.63;3.35;;;18.10;99.90;;;;;;7343880;19;109441;-82
2022/06/16 02:02:16;;;;;;;8.15;3.35;;;18.10;99.90;;;;;;7342983;19;107478;-82
2022/06/16 02:04:59;;;;;;;6.30;3.05;;;18.00;99.90;;;;;;7348003;19;108557;-83
2022/06/16 02:07:52;;;;;;;5.82;3.03;;;17.90;99.90;;;;;;7340158;19;107203;-81
2022/06/16 02:10:29;;;;;;;4.85;2.95;;;17.90;99.90;;;;;;7340691;19;108298;-82
2022/06/16 02:12:59;;;;;;;6.97;3.20;;;17.90;99.90;;;;;;7341050;19;108835;-82
2022/06/16 02:15:48;;;;;;;5.32;3.08;;;17.80;99.90;;;;;;7342808;19;108106;-82
2022/06/16 02:18:20;;;;;;;6.88;3.17;;;17.70;99.90;;;;;;7343110;19;108571;-82
2022/06/16 02:20:58;;;;;;;5.07;3.60;;;17.70;99.90;;;;;;7342083;19;108932;-82
2022/06/16 02:23:26;;;;;;;5.72;3.00;;;17.70;99.90;;;;;;7345159;19;108002;-81
2022/06/16 02:25:56;;;;;;;5.03;3.10;;;17.70;99.90;;;;;;7344604;19;108620;-81
2022/06/16 02:28:24;;;;;;;6.90;3.20;;;17.60;99.90;;;;;;7350952;19;108930;-82
2022/06/16 02:30:53;;;;;;;6.10;2.92;;;17.60;99.90;;;;;;7346138;19;108514;-81
2022/06/16 02:33:33;;;;;;;7.00;3.15;;;17.70;99.80;;;;;;7342563;19;108401;-82
2022/06/16 02:36:50;;;;;;;5.47;3.33;;;17.90;99.40;;;;;;7344100;19;108304;-81
2022/06/16 02:39:49;;;;;;;5.70;2.92;;;18.00;99.00;;;;;;7342770;19;108646;-82
2022/06/16 02:42:31;;;;;;;7.50;2.90;;;18.00;98.70;;;;;;7346267;19;109285;-82
2022/06/16 02:45:10;;;;;;;6.75;3.30;;;18.10;98.70;;;;;;7342938;19;107752;-81
2022/06/16 02:47:58;;;;;;;6.80;3.65;;;18.00;98.70;;;;;;7343693;19;107051;-81
2022/06/16 02:50:35;;;;;;;11.65;3.47;;;17.90;98.80;;;;;;7341859;19;108640;-81
2022/06/16 02:56:25;;;;;;;6.97;3.50;;;17.70;99.10;;;;;;7345006;19;108953;-81
2022/06/16 02:58:56;;;;;;;7.30;3.55;;;17.60;99.40;;;;;;7345235;19;107824;-81
2022/06/16 03:01:25;;;;;;;6.32;3.50;;;17.50;99.60;;;;;;7340031;19;108505;-78
2022/06/16 03:04:05;;;;;;;5.65;3.20;;;17.40;99.80;;;;;;7341399;19;109742;-78
2022/06/16 03:06:33;;;;;;;5.45;3.90;;;17.30;99.90;;;;;;7342256;19;107143;-78
2022/06/16 03:09:00;;;;;;;5.15;4.00;;;17.30;99.90;;;;;;7345040;19;107355;-78
2022/06/16 03:11:30;;;;;;;7.55;3.95;;;17.20;99.90;;;;;;7340141;19;107682;-78
2022/06/16 03:14:00;;;;;;;5.82;3.85;;;17.20;99.90;;;;;;7348396;19;108114;-78
2022/06/16 03:16:28;;;;;;;8.82;3.55;;;17.10;99.90;;;;;;7345434;19;108878;-78
2022/06/16 03:18:56;;;;;;;8.50;4.13;;;17.00;99.90;;;;;;7343833;19;108214;-78
2022/06/16 03:21:23;;;;;;;8.15;4.03;;;16.90;99.90;;;;;;7343863;19;109038;-78
2022/06/16 03:23:50;;;;;;;6.03;3.85;;;16.80;99.90;;;;;;7343453;19;108978;-79
2022/06/16 03:26:17;;;;;;;6.03;3.80;;;16.70;99.90;;;;;;7345103;19;108100;-78
2022/06/16 03:28:44;;;;;;;9.13;4.07;;;16.70;99.90;;;;;;7344781;19;109361;-77
2022/06/16 03:31:12;;;;;;;9.20;4.32;;;16.70;99.90;;;;;;7344367;19;111049;-78
2022/06/16 03:33:39;;;;;;;9.05;4.47;;;16.70;99.90;;;;;;7343409;19;107296;-78
2022/06/16 03:36:06;;;;;;;9.65;4.25;;;16.70;99.90;;;;;;7350535;19;108728;-79
2022/06/16 03:38:40;;;;;;;7.63;4.47;;;16.60;99.90;;;;;;7343653;19;107893;-79
2022/06/16 03:41:07;;;;;;;11.13;4.03;;;16.60;99.90;;;;;;7343983;19;107381;-79
2022/06/16 03:43:34;;;;;;;12.52;4.80;;;16.60;99.90;;;;;;7342514;19;108901;-78
2022/06/16 03:46:02;;;;;;;9.25;4.13;;;16.60;99.90;;;;;;7344510;19;107926;-79
2022/06/16 03:48:30;;;;;;;7.35;3.88;;;16.50;99.90;;;;;;7343509;19;107627;-78
2022/06/16 03:50:57;;;;;;;9.27;4.07;;;16.60;99.90;;;;;;7344342;19;109370;-78
2022/06/16 03:53:25;;;;;;;10.98;4.30;;;16.60;99.90;;;;;;7340353;19;108141;-78
2022/06/16 03:55:52;;;;;;;7.53;4.28;;;16.60;99.90;;;;;;7343858;19;109128;-78
2022/06/16 03:58:22;;;;;;;7.22;4.30;;;16.60;99.90;;;;;;7349224;19;109115;-78
2022/06/16 04:00:49;;;;;;;8.45;4.40;;;16.60;99.90;;;;;;7342176;19;112130;-78
2022/06/16 04:06:01;;;;;;;7.30;4.68;;;16.60;99.90;;;;;;7342352;19;110675;-78
2022/06/16 04:08:28;;;;;;;10.23;4.70;;;16.60;99.90;;;;;;7343379;19;107645;-78
2022/06/16 04:10:56;;;;;;;10.95;4.95;;;16.60;99.90;;;;;;7340199;19;114169;-78
2022/06/16 04:13:23;;;;;;;9.00;4.22;;;16.60;99.90;;;;;;7339705;19;109598;-78
2022/06/16 04:15:52;;;;;;;7.43;4.45;;;16.60;99.90;;;;;;7343122;19;110913;-78
2022/06/16 04:18:20;;;;;;;6.90;4.28;;;16.70;99.90;;;;;;7342685;19;109652;-78
2022/06/16 04:20:48;;;;;;;6.53;4.53;;;16.70;99.90;;;;;;7347865;19;110989;-78
2022/06/16 04:23:23;;;;;;;10.00;4.47;;;16.70;99.90;;;;;;7341059;19;109097;-78
2022/06/16 04:25:50;;;;;;;8.55;4.28;;;16.70;99.90;;;;;;7342840;19;107345;-78
2022/06/16 04:28:17;;;;;;;9.00;4.70;;;16.70;99.90;;;;;;7343148;19;107182;-78
2022/06/16 04:30:44;;;;;;;8.23;4.57;;;16.80;99.90;;;;;;7340876;19;109144;-78
2022/06/16 04:33:13;;;;;;;10.02;4.78;;;16.80;99.90;;;;;;7342292;19;108420;-78
2022/06/16 04:35:44;;;;;;;8.88;4.88;;;16.80;99.90;;;;;;7342883;19;108584;-78
2022/06/16 04:38:11;;;;;;;10.25;4.40;;;16.80;99.90;;;;;;7343371;19;109645;-78
2022/06/16 04:40:38;;;;;;;6.40;4.60;;;16.80;99.90;;;;;;7342335;19;107164;-78
2022/06/16 04:43:05;;;;;;;6.10;4.53;;;16.90;99.90;;;;;;7347537;19;108694;-78
2022/06/16 04:45:32;;;;;;;7.18;4.75;;;16.90;99.90;;;;;;7342492;19;107734;-78
2022/06/16 04:47:59;;;;;;;9.10;4.80;;;17.00;99.90;;;;;;7341494;19;108594;-78
2022/06/16 04:50:26;;;;;;;6.40;4.80;;;17.00;99.90;;;;;;7341617;19;108189;-78
2022/06/16 04:52:55;;;;;;;8.25;4.95;;;17.00;99.90;;;;;;7342121;19;107388;-78
2022/06/16 04:55:22;;;;;;;10.23;4.97;;;17.00;99.90;;;;;;7339708;19;108485;-78
2022/06/16 04:57:49;;;;;;;8.18;5.05;;;16.90;99.90;;;;;;7339935;19;108474;-78
2022/06/16 05:00:19;;;;;;;8.23;4.60;;;17.00;99.90;;;;;;7342122;19;107939;-78
2022/06/16 05:02:50;;;;;;;11.02;5.25;;;17.00;99.90;;;;;;7343788;19;109050;-78
2022/06/16 05:05:18;;;;;;;9.75;4.88;;;17.10;99.90;;;;;;7341907;19;107837;-78
2022/06/16 05:07:45;;;;;;;8.15;4.15;;;17.20;99.90;;;;;;7337842;19;108599;-78
2022/06/16 05:10:12;;;;;;;9.20;5.10;;;17.20;99.90;;;;;;7337837;19;109014;-78
2022/06/16 05:12:40;;;;;;;9.50;4.88;;;17.20;99.90;;;;;;7340705;19;108189;-78
2022/06/16 05:15:07;;;;;;;12.80;5.43;;;17.20;99.90;;;;;;7337412;19;108264;-80
2022/06/16 05:17:35;;;;;;;12.10;5.05;;;17.20;99.90;;;;;;7339824;19;107871;-79
2022/06/16 05:20:03;;;;;;;8.98;5.13;;;17.20;99.90;;;;;;7340251;19;108268;-80
2022/06/16 05:22:30;;;;;;;8.90;4.95;;;17.20;99.70;;;;;;7340066;19;108246;-79
2022/06/16 05:24:57;;;;;;;7.00;4.97;;;17.30;99.90;;;;;;7352133;19;109320;-79
2022/06/16 05:27:27;;;;;;;8.05;4.97;;;17.30;99.90;;;;;;7346437;19;109793;-79
2022/06/16 05:29:54;;;;;;;7.15;5.25;;;17.30;99.70;;;;;;7346773;19;108932;-79
2022/06/16 05:32:21;;;;;;;7.82;4.78;;;17.40;99.50;;;;;;7346643;19;108901;-78
2022/06/16 05:34:48;;;;;;;8.85;5.00;;;17.40;99.70;;;;;;7344755;19;108237;-79
2022/06/16 05:37:18;;;;;;;11.23;4.60;;;17.50;99.40;;;;;;7347915;19;109487;-79
2022/06/16 05:39:47;;;;;;;6.13;4.90;;;17.50;99.20;;;;;;7347166;19;108194;-79
2022/06/16 05:42:15;;;;;;;7.00;4.60;;;17.60;99.20;;;;;;7347556;19;108460;-79
2022/06/16 05:44:42;;;;;;;6.10;4.38;;;17.60;98.90;;;;;;7347332;19;108945;-79
2022/06/16 05:47:09;;;;;;;8.35;5.28;;;17.60;98.90;;;;;;7351436;19;108163;-79
2022/06/16 05:49:38;;;;;;;5.85;4.90;;;17.60;98.70;;;;;;7345095;19;113521;-79
2022/06/16 05:52:08;;;;;;;6.82;4.80;;;17.70;98.80;;;;;;7344938;19;108206;-79
2022/06/16 05:54:36;;;;;;;10.60;5.55;;;17.80;98.70;;;;;;7345244;19;108220;-79
2022/06/16 05:57:04;;;;;;;6.45;4.88;;;18.00;98.70;;;;;;7344811;19;109070;-78
2022/06/16 05:59:31;;;;;;;6.32;5.05;;;18.10;98.20;;;;;;7346510;19;108808;-78
2022/06/16 06:01:58;;;;;;;9.93;4.80;;;18.20;98.20;;;;;;7344571;19;107768;-78
2022/06/16 06:04:25;;;;;;;9.02;4.82;;;18.20;97.80;;;;;;7346113;19;110076;-78
2022/06/16 06:06:54;;;;;;;10.55;5.00;;;18.20;98.20;;;;;;7345395;19;109331;-79
2022/06/16 06:17:45;;;;;;;9.82;5.10;;;18.40;97.90;;;;;;7346995;19;108926;-79
2022/06/16 06:20:12;;;;;;;6.57;4.18;;;18.50;97.60;;;;;;7347396;19;107400;-79
2022/06/16 06:22:39;;;;;;;6.07;4.32;;;18.60;97.40;;;;;;7346111;19;107477;-78
2022/06/16 06:25:07;;;;;;;10.10;4.60;;;18.60;97.40;;;;;;7345529;19;108984;-78
2022/06/16 06:27:42;;;;;;;5.22;4.00;;;18.60;97.30;;;;;;7342953;19;108300;-78
2022/06/16 06:30:22;;;;;;;9.50;4.28;;;18.70;97.30;;;;;;7345717;19;109481;-78
2022/06/16 06:32:50;;;;;;;6.57;4.00;;;18.90;97.60;;;;;;7351016;19;108876;-79
2022/06/16 06:35:18;;;;;;;6.05;3.60;;;19.00;97.20;;;;;;7341869;19;108234;-78
2022/06/16 06:37:45;;;;;;;9.15;4.20;;;19.20;97.20;;;;;;7346023;19;108490;-79
2022/06/16 06:40:26;;;;;;;6.05;4.10;;;19.30;96.90;;;;;;7345283;19;108332;-79
2022/06/16 06:42:53;;;;;;;7.82;3.67;;;19.30;96.10;;;;;;7344204;19;107496;-79
2022/06/16 06:45:21;;;;;;;6.05;3.70;;;19.30;96.30;;;;;;7346294;19;108888;-79
2022/06/16 06:47:48;;;;;;;6.78;3.90;;;19.50;96.20;;;;;;7345539;19;107650;-79
2022/06/16 06:50:22;;;;;;;6.63;4.07;;;19.50;96.30;;;;;;7347042;19;108227;-79
2022/06/16 06:52:51;;;;;;;7.25;4.20;;;19.60;96.50;;;;;;7345285;19;109144;-79
2022/06/16 06:55:18;;;;;;;6.30;3.97;;;19.60;96.00;;;;;;7349561;19;108040;-79
2022/06/16 06:57:46;;;;;;;6.28;4.05;;;19.80;96.60;;;;;;7340427;19;108438;-79
2022/06/16 07:00:15;;;;;;;9.20;3.95;;;19.90;96.40;;;;;;7344862;19;108594;-78
2022/06/16 07:02:42;;;;;;;7.47;4.03;;;20.10;96.10;;;;;;7342420;19;107237;-79
2022/06/16 07:05:10;;;;;;;6.95;4.07;;;20.20;95.50;;;;;;7344641;19;108825;-79
2022/06/16 07:07:45;;;;;;;18.70;4.22;;;20.20;95.60;;;;;;7344265;19;111909;-79
2022/06/16 07:10:14;;;;;;;7.75;3.60;;;20.40;95.90;;;;;;7343024;19;111904;-79
2022/06/16 07:12:41;;;;;;;7.63;4.05;;;20.50;95.30;;;;;;7343676;19;108842;-79
2022/06/16 07:15:10;;;;;;;7.30;3.83;;;20.50;95.00;;;;;;7349266;19;107414;-78
2022/06/16 07:17:37;;;;;;;11.23;4.07;;;20.50;95.00;;;;;;7344986;19;108975;-78
2022/06/16 07:20:05;;;;;;;5.50;3.22;;;20.60;94.40;;;;;;7346585;19;108283;-78
2022/06/16 07:22:32;;;;;;;9.85;4.05;;;20.70;94.60;;;;;;7345040;19;111748;-79
2022/06/16 07:24:59;;;;;;;5.32;4.28;;;20.70;94.30;;;;;;7343852;19;109031;-78
2022/06/16 07:27:26;;;;;;;10.05;4.20;;;20.70;93.90;;;;;;7344457;19;108872;-79
2022/06/16 07:29:54;;;;;;;14.32;4.45;;;20.70;94.40;;;;;;7342334;19;108568;-79
2022/06/16 07:32:21;;;;;;;6.07;3.90;;;20.80;94.40;;;;;;7343496;19;109245;-78
2022/06/16 07:34:49;;;;;;;8.13;3.83;;;20.90;93.60;;;;;;7343686;19;107952;-79
2022/06/16 07:37:17;;;;;;;6.57;4.13;;;20.80;93.30;;;;;;7349219;19;108160;-79
2022/06/16 07:39:44;;;;;;;7.03;3.70;;;20.80;93.00;;;;;;7342433;19;107761;-79
2022/06/16 07:42:11;;;;;;;5.82;3.78;;;20.70;92.40;;;;;;7344006;19;109804;-79
2022/06/16 07:44:38;;;;;;;6.93;3.40;;;20.80;93.50;;;;;;7343066;19;108487;-78
2022/06/16 07:47:06;;;;;;;12.40;3.88;;;21.00;93.80;;;;;;7342409;19;109691;-79
2022/06/16 07:49:36;;;;;;;12.85;3.65;;;21.10;92.60;;;;;;7342337;19;108273;-79
2022/06/16 07:52:03;;;;;;;7.55;3.53;;;21.20;93.00;;;;;;7342864;19;109059;-79
2022/06/16 07:54:30;;;;;;;4.18;3.22;;;21.40;92.80;;;;;;7338867;19;108256;-79
2022/06/16 07:57:18;;;;;;;5.50;3.00;;;21.40;91.90;;;;;;7342984;19;108164;-79
2022/06/16 07:59:54;;;;;;;5.10;3.17;;;21.30;91.70;;;;;;7346566;19;108924;-79
2022/06/16 08:02:21;;;;;;;6.13;3.10;;;21.20;91.50;;;;;;7342403;19;108473;-79
2022/06/16 08:04:49;;;;;;;6.93;3.40;;;21.20;92.00;;;;;;7342923;19;108892;-78
2022/06/16 08:07:17;;;;;;;5.30;2.83;;;21.40;91.10;;;;;;7342535;19;108754;-79
2022/06/16 08:09:44;;;;;;;10.60;3.33;;;21.40;91.30;;;;;;7341360;19;108542;-78
2022/06/16 08:12:12;;;;;;;5.75;2.90;;;21.50;91.60;;;;;;7338328;19;109384;-79
2022/06/16 08:14:48;;;;;;;3.75;2.72;;;21.50;90.60;;;;;;7342682;19;108114;-79
2022/06/16 08:17:25;;;;;;;5.65;2.80;;;21.70;90.40;;;;;;7343576;19;108463;-78
2022/06/16 08:19:53;;;;;;;;;;;21.70;90.00;;;;;;7344024;19;109150;-79
2022/06/16 08:22:21;;;;;;;9.40;2.60;;;21.70;89.70;;;;;;7351233;19;107976;-79
2022/06/16 08:24:48;;;;;;;7.50;2.65;;;21.60;89.30;;;;;;7340612;19;109184;-79
2022/06/16 08:27:22;;;;;;;3.78;2.00;;;21.70;87.10;;;;;;7343328;19;107923;-79
2022/06/16 08:29:51;;;;;;;6.43;2.25;;;21.60;85.10;;;;;;7340713;19;107208;-79
2022/06/16 08:32:20;;;;;;;8.02;2.30;;;21.70;86.00;;;;;;7342707;19;109290;-79
2022/06/16 08:34:49;;;;;;;10.25;2.65;;;21.80;87.10;;;;;;7341794;19;109405;-79
2022/06/16 08:37:16;;;;;;;6.32;2.42;;;22.00;88.10;;;;;;7342318;19;108464;-79
2022/06/16 08:39:43;;;;;;;4.63;2.30;;;22.20;86.00;;;;;;7342516;19;109692;-79
2022/06/16 08:42:20;;;;;;;7.28;2.05;;;22.30;83.30;;;;;;7341299;19;108058;-79
2022/06/16 08:45:02;;;;;;;8.45;1.95;;;22.20;81.20;;;;;;7348031;19;108201;-79
2022/06/16 08:47:30;;;;;;;16.38;2.92;;;22.20;84.20;;;;;;7343468;19;108346;-79
2022/06/16 08:50:22;;;;;;;3.60;1.65;;;22.40;85.00;;;;;;7342016;19;108187;-79
2022/06/16 08:53:10;;;;;;;9.60;1.88;;;22.40;80.00;;;;;;7342907;19;109018;-86
2022/06/16 08:55:59;;;;;;;3.65;1.80;;;22.30;81.10;;;;;;7341501;19;110607;-86
2022/06/16 08:58:32;;;;;;;7.88;1.80;;;22.50;79.00;;;;;;7340656;19;108261;-91
2022/06/16 09:01:06;;;;;;;3.55;1.70;;;22.40;82.10;;;;;;7341576;19;106931;-91
2022/06/16 09:03:53;;;;;;;3.67;1.50;;;22.60;82.10;;;;;;7342138;19;108118;-88
2022/06/16 09:06:39;;;;;;;3.20;1.80;;;22.70;80.70;;;;;;7341748;19;109998;-88
2022/06/16 09:12:40;;;;;;;3.80;1.80;;;22.90;77.40;;;;;;7341425;19;108496;-88
2022/06/16 09:15:24;;;;;;;14.88;2.40;;;22.90;80.70;;;;;;7341696;19;110772;-89
2022/06/16 09:18:09;;;;;;;9.70;2.05;;;23.10;80.40;;;;;;7343625;19;108612;-88
2022/06/16 09:20:48;;;;;;;3.72;1.70;;;23.20;80.00;;;;;;7342555;19;107288;-90
2022/06/16 09:23:43;;;;;;;5.10;1.80;;;23.20;78.80;;;;;;7345119;19;109138;-89
2022/06/16 09:26:41;;;;;;;4.80;1.90;;;23.20;77.00;;;;;;7348494;19;107443;-88
2022/06/16 09:29:42;;;;;;;4.25;1.90;;;23.10;76.40;;;;;;7350551;19;108928;-88
2022/06/16 09:32:37;;;;;;;5.18;1.95;;;23.20;78.80;;;;;;7350136;19;108091;-89
2022/06/16 09:35:19;;;;;;;5.85;1.70;;;23.30;77.10;;;;;;7344669;19;107463;-90
2022/06/16 09:38:04;;;;;;;3.13;1.60;;;23.30;76.10;;;;;;7354728;19;108147;-90
2022/06/16 09:40:43;;;;;;;11.60;1.83;;;23.30;75.50;;;;;;7344262;19;107905;-90
2022/06/16 09:43:27;;;;;;;28.10;2.72;;;23.40;78.70;;;;;;7346803;19;107680;-90
2022/06/16 09:45:54;;;;;;;5.07;1.67;;;23.60;79.30;;;;;;7356719;19;107846;-90
2022/06/16 09:48:42;;;;;;;17.42;2.30;;;23.80;77.50;;;;;;7355152;19;107909;-90
2022/06/16 09:51:14;;;;;;;6.00;2.00;;;24.00;78.40;;;;;;7343218;19;108333;-88
2022/06/16 09:54:17;;;;;;;6.60;2.00;;;24.10;77.00;;;;;;7345205;19;108058;-90
2022/06/16 09:56:57;;;;;;;4.13;1.83;;;24.10;76.70;;;;;;7350884;19;107116;-90
2022/06/16 09:59:41;;;;;;;12.70;2.60;;;24.10;74.40;;;;;;7351165;19;111394;-88
2022/06/16 10:02:20;;;;;;;9.77;2.08;;;24.10;77.10;;;;;;7363443;19;107838;-90
2022/06/16 10:04:52;;;;;;;5.05;1.85;;;24.20;78.00;;;;;;7366002;19;106984;-90
2022/06/16 10:07:28;;;;;;;25.30;2.33;;;24.50;76.90;;;;;;7361017;19;107170;-88
2022/06/16 10:10:30;;;;;;;6.27;1.90;;;24.60;76.70;;;;;;7364387;19;107021;-90
2022/06/16 10:13:32;;;;;;;7.78;1.75;;;24.80;77.00;;;;;;7362329;19;107130;-91
2022/06/16 10:16:15;;;;;;;6.95;1.90;;;24.80;75.50;;;;;;7370062;19;108897;-89
2022/06/16 10:18:43;;;;;;;3.85;1.60;;;24.90;71.00;;;;;;7360779;19;106803;-91
2022/06/16 10:21:12;;;;;;;20.10;3.10;;;24.70;71.40;;;;;;7369511;19;109694;-88
2022/06/16 10:24:00;;;;;;;10.52;2.28;;;24.70;73.70;;;;;;7360046;19;109405;-88
2022/06/16 10:26:27;;;;;;;8.52;2.08;;;24.80;72.00;;;;;;7356577;19;108116;-90
2022/06/16 10:29:18;;;;;;;4.43;1.98;;;24.90;73.80;;;;;;7371325;19;107662;-88
2022/06/16 10:31:48;;;;;;;11.95;2.53;;;24.90;72.00;;;;;;7367759;19;107175;-90
2022/06/16 10:34:20;;;;;;;13.35;1.90;;;24.90;69.60;;;;;;7367857;19;107351;-89
2022/06/16 10:37:09;;;;;;;19.98;2.60;;;24.90;71.30;;;;;;7361526;19;107825;-91
2022/06/16 10:39:43;;;;;;;28.58;3.35;;;25.00;73.60;;;;;;7358662;19;106905;-90
2022/06/16 10:42:19;;;;;;;12.02;2.30;;;25.10;73.10;;;;;;7356398;19;107367;-89
2022/06/16 10:44:58;;;;;;;10.20;1.92;;;25.30;73.50;;;;;;7362404;19;108731;-90
2022/06/16 10:47:33;;;;;;;6.78;1.60;;;25.40;74.00;;;;;;7347867;19;108403;-89
2022/06/16 10:50:04;;;;;;;4.68;1.92;;;25.40;70.80;;;;;;7347006;19;108914;-88
2022/06/16 10:52:35;;;;;;;7.38;2.38;;;25.40;68.20;;;;;;7346648;19;107786;-90
2022/06/16 10:55:11;;;;;;;4.95;1.98;;;25.20;68.70;;;;;;7344868;19;107189;-89
2022/06/16 10:57:48;;;;;;;10.55;2.25;;;25.40;71.00;;;;;;7345028;19;109245;-92
2022/06/16 11:00:22;;;;;;;7.22;2.38;;;25.40;70.60;;;;;;7346633;19;108318;-90
2022/06/16 11:03:01;;;;;;;12.00;2.20;;;25.40;70.90;;;;;;7343967;19;108688;-89
2022/06/16 11:05:32;;;;;;;33.05;3.15;;;25.40;70.10;;;;;;7347423;19;109193;-91
2022/06/16 11:08:13;;;;;;;34.03;2.95;;;25.50;70.60;;;;;;7352611;19;108160;-90
2022/06/16 11:11:02;;;;;;;11.68;2.80;;;25.60;71.70;;;;;;7344434;19;110888;-89
2022/06/16 11:13:33;;;;;;;8.30;2.28;;;25.70;70.80;;;;;;7346868;19;108197;-90
2022/06/16 11:16:07;;;;;;;16.25;2.80;;;25.80;70.60;;;;;;7346949;19;108573;-91
2022/06/16 11:18:37;;;;;;;11.52;2.20;;;25.90;69.30;;;;;;7347168;19;109039;-90
2022/06/16 11:21:20;;;;;;;4.70;1.90;;;25.90;68.90;;;;;;7344183;19;107029;-90
2022/06/16 11:23:54;;;;;;;3.13;1.63;;;25.70;67.60;;;;;;7346997;19;108615;-90
2022/06/16 11:26:28;;;;;;;5.13;1.90;;;25.60;66.30;;;;;;7348036;19;107742;-88
2022/06/16 11:29:10;;;;;;;6.55;2.03;;;25.40;66.30;;;;;;7346114;19;107960;-89
2022/06/16 11:31:46;;;;;;;6.68;2.20;;;25.50;67.90;;;;;;7351006;19;107697;-89
2022/06/16 11:34:25;;;;;;;9.63;1.90;;;25.70;65.80;;;;;;7346134;19;108206;-90
2022/06/16 11:37:00;;;;;;;6.20;1.73;;;25.70;67.60;;;;;;7345003;19;112978;-90
2022/06/16 11:40:04;;;;;;;6.50;1.70;;;25.80;69.10;;;;;;7345752;19;107850;-89
2022/06/16 11:42:43;;;;;;;13.88;2.17;;;25.90;64.90;;;;;;7345017;19;107500;-89
2022/06/16 11:45:29;;;;;;;5.70;1.65;;;25.80;66.80;;;;;;7345030;19;107999;-89
2022/06/16 11:48:02;;;;;;;6.55;2.30;;;26.10;68.80;;;;;;7345159;19;108703;-89
2022/06/16 11:50:49;;;;;;;9.95;2.28;;;26.20;69.60;;;;;;7344434;19;108554;-89
2022/06/16 11:53:39;;;;;;;6.77;1.97;;;26.40;69.20;;;;;;7349289;19;108218;-90
2022/06/16 11:56:12;;;;;;;9.77;2.00;;;26.50;66.30;;;;;;7343468;19;107680;-91
2022/06/16 11:58:47;;;;;;;20.35;2.72;;;26.40;64.70;;;;;;7344571;19;108594;-90
2022/06/16 12:01:21;;;;;;;15.68;2.75;;;26.40;69.00;;;;;;7343118;19;112197;-89
2022/06/16 12:04:32;;;;;;;4.53;2.22;;;26.60;69.20;;;;;;7342899;19;108622;-89
2022/06/16 12:07:21;;;;;;;7.38;2.10;;;26.90;69.60;;;;;;7342227;19;108394;-88
2022/06/16 12:10:10;;;;;;;6.95;2.30;;;27.20;66.50;;;;;;7344296;19;111513;-89
2022/06/16 12:12:48;;;;;;;7.03;2.30;;;27.20;67.60;;;;;;7344336;19;111235;-89
2022/06/16 12:15:37;;;;;;;4.63;2.00;;;27.10;63.50;;;;;;7343590;19;108482;-89
2022/06/16 12:18:36;;;;;;;6.13;1.80;;;27.20;66.50;;;;;;7347494;19;108867;-89
2022/06/16 12:21:03;;;;;;;9.38;2.42;;;27.40;65.90;;;;;;7342630;19;107508;-88
2022/06/16 12:23:57;;;;;;;7.57;2.47;;;27.50;64.70;;;;;;7337822;19;107880;-90
2022/06/16 12:26:51;;;;;;;3.83;2.03;;;27.60;64.20;;;;;;7338533;19;108601;-90
2022/06/16 12:29:43;;;;;;;6.65;2.20;;;27.70;63.20;;;;;;7338417;19;109761;-85
2022/06/16 12:32:30;;;;;;;6.97;2.15;;;27.80;64.00;;;;;;7337185;19;108925;-89
2022/06/16 12:35:12;;;;;;;21.00;3.13;;;28.00;66.00;;;;;;7337193;19;107530;-84
2022/06/16 12:37:47;;;;;;;4.97;2.20;;;28.10;65.40;;;;;;7335487;19;108285;-82
2022/06/16 12:40:22;;;;;;;7.43;2.10;;;28.20;66.00;;;;;;7340752;19;108955;-82
2022/06/16 12:43:00;;;;;;;15.13;2.40;;;28.30;64.10;;;;;;7346034;19;108001;-83
2022/06/16 12:45:35;;;;;;;5.25;1.90;;;28.30;63.70;;;;;;7341058;19;108509;-82
2022/06/16 12:48:12;;;;;;;9.18;1.90;;;28.30;61.40;;;;;;7342872;19;107825;-83
2022/06/16 12:50:41;;;;;;;;;;;28.20;60.40;;;;;;7344083;19;108780;-83
2022/06/16 12:53:22;;;;;;;19.00;3.47;;;28.50;62.70;;;;;;7345698;19;112874;-83
2022/06/16 12:55:58;;;;;;;11.90;2.72;;;28.40;61.70;;;;;;7341913;19;106974;-88
2022/06/16 12:58:31;;;;;;;5.57;2.22;;;28.90;61.90;;;;;;7338894;19;107492;-88
2022/06/16 13:01:03;;;;;;;11.38;2.30;;;29.30;60.00;;;;;;7337810;19;108572;-87
2022/06/16 13:03:41;;;;;;;4.88;1.65;;;29.30;60.10;;;;;;7338412;19;111584;-86
2022/06/16 13:06:10;;;;;;;10.70;2.33;;;29.30;58.10;;;;;;7346999;19;108126;-89
2022/06/16 13:15:16;;;;;;;5.10;1.80;;;29.50;57.30;;;;;;7334557;19;108746;-89
2022/06/16 13:17:54;;;;;;;4.43;1.83;;;29.60;59.00;;;;;;7332958;19;107832;-88
2022/06/16 13:20:26;;;;;;;4.15;1.77;;;29.60;58.20;;;;;;7334563;19;108243;-88
2022/06/16 13:23:01;;;;;;;4.88;1.73;;;29.80;58.20;;;;;;7334623;19;109423;-88
2022/06/16 13:25:42;;;;;;;5.68;2.35;;;30.00;58.40;;;;;;7336720;19;108008;-86
2022/06/16 13:28:24;;;;;;;5.38;2.25;;;30.10;57.50;;;;;;7336642;19;108092;-85
2022/06/16 13:31:09;;;;;;;2.45;1.65;;;30.20;58.50;;;;;;7341504;19;108486;-84
2022/06/16 13:33:58;;;;;;;10.73;2.05;;;30.30;58.80;;;;;;7334605;19;107764;-84
2022/06/16 13:36:31;;;;;;;10.77;2.33;;;30.40;58.50;;;;;;7336341;19;112421;-85
2022/06/16 13:39:00;;;;;;;15.73;2.83;;;30.50;59.20;;;;;;7335629;19;107969;-84
2022/06/16 13:41:45;;;;;;;6.35;2.20;;;30.60;58.30;;;;;;7337119;19;107480;-82